sensor_id;sensor_type;location;lat;lon;timestamp;P1;durP1;ratioP1;P2;durP2;ratioP2
45392;SDS011;31129;44.810;10.334;2022-11-15T00:00:13;41.67;;;23.73;;
45392;SDS011;31129;44.810;10.334;2022-11-15T00:02:57;39.70;;;24.05;;
45392;SDS011;31129;44.810;10.334;2022-11-15T00:05:41;44.58;;;25.45;;
45392;SDS011;31129;44.810;10.334;2022-11-15T00:08:28;39.22;;;23.30;;
45392;SDS011;31129;44.810;10.334;2022-11-15T00:11:14;47.25;;;25.10;;
45392;SDS011;31129;44.810;10.334;2022-11-15T00:13:57;41.05;;;24.45;;
45392;SDS011;31129;44.810;10.334;2022-11-15T00:16:42;40.15;;;22.75;;
45392;SDS011;31129;44.810;10.334;2022-11-15T00:19:26;41.15;;;25.27;;
45392;SDS011;31129;44.810;10.334;2022-11-15T00:22:10;41.55;;;23.92;;
45392;SDS011;31129;44.810;10.334;2022-11-15T00:24:54;40.65;;;23.92;;
45392;SDS011;31129;44.810;10.334;2022-11-15T00:27:41;38.97;;;24.00;;
45392;SDS011;31129;44.810;10.334;2022-11-15T00:30:26;39.85;;;24.55;;
45392;SDS011;31129;44.810;10.334;2022-11-15T00:33:10;36.08;;;23.17;;
45392;SDS011;31129;44.810;10.334;2022-11-15T00:36:04;39.42;;;23.05;;
45392;SDS011;31129;44.810;10.334;2022-11-15T00:38:50;39.58;;;23.50;;
45392;SDS011;31129;44.810;10.334;2022-11-15T00:41:34;38.20;;;22.38;;
45392;SDS011;31129;44.810;10.334;2022-11-15T00:44:18;38.58;;;22.35;;
45392;SDS011;31129;44.810;10.334;2022-11-15T00:47:02;39.00;;;21.75;;
45392;SDS011;31129;44.810;10.334;2022-11-15T00:49:46;36.83;;;21.20;;
45392;SDS011;31129;44.810;10.334;2022-11-15T00:52:29;36.80;;;21.67;;
45392;SDS011;31129;44.810;10.334;2022-11-15T00:55:14;35.97;;;21.23;;
45392;SDS011;31129;44.810;10.334;2022-11-15T00:57:59;35.88;;;21.92;;
45392;SDS011;31129;44.810;10.334;2022-11-15T01:00:43;36.53;;;21.02;;
45392;SDS011;31129;44.810;10.334;2022-11-15T01:03:27;38.60;;;22.15;;
45392;SDS011;31129;44.810;10.334;2022-11-15T01:06:11;38.78;;;21.33;;
45392;SDS011;31129;44.810;10.334;2022-11-15T01:08:55;36.03;;;21.23;;
45392;SDS011;31129;44.810;10.334;2022-11-15T01:11:39;35.85;;;21.05;;
45392;SDS011;31129;44.810;10.334;2022-11-15T01:14:23;34.03;;;21.48;;
45392;SDS011;31129;44.810;10.334;2022-11-15T01:17:07;36.45;;;20.92;;
45392;SDS011;31129;44.810;10.334;2022-11-15T01:19:52;36.08;;;21.52;;
45392;SDS011;31129;44.810;10.334;2022-11-15T01:22:36;35.28;;;20.80;;
45392;SDS011;31129;44.810;10.334;2022-11-15T01:25:20;32.28;;;20.13;;
45392;SDS011;31129;44.810;10.334;2022-11-15T01:28:04;37.88;;;21.42;;
45392;SDS011;31129;44.810;10.334;2022-11-15T01:30:48;32.17;;;20.20;;
45392;SDS011;31129;44.810;10.334;2022-11-15T01:33:34;37.78;;;21.50;;
45392;SDS011;31129;44.810;10.334;2022-11-15T01:36:20;34.72;;;22.15;;
45392;SDS011;31129;44.810;10.334;2022-11-15T01:39:05;38.28;;;22.50;;
45392;SDS011;31129;44.810;10.334;2022-11-15T01:41:49;40.22;;;22.65;;
45392;SDS011;31129;44.810;10.334;2022-11-15T01:47:25;36.28;;;21.00;;
45392;SDS011;31129;44.810;10.334;2022-11-15T01:50:14;38.03;;;21.50;;
45392;SDS011;31129;44.810;10.334;2022-11-15T01:53:01;35.17;;;20.80;;
45392;SDS011;31129;44.810;10.334;2022-11-15T01:55:45;34.08;;;21.50;;
45392;SDS011;31129;44.810;10.334;2022-11-15T01:58:29;35.60;;;21.67;;
45392;SDS011;31129;44.810;10.334;2022-11-15T02:01:13;34.58;;;21.35;;
45392;SDS011;31129;44.810;10.334;2022-11-15T02:03:59;31.83;;;20.35;;
45392;SDS011;31129;44.810;10.334;2022-11-15T02:06:47;39.28;;;20.92;;
45392;SDS011;31129;44.810;10.334;2022-11-15T02:09:32;34.40;;;20.90;;
45392;SDS011;31129;44.810;10.334;2022-11-15T02:12:18;35.85;;;20.67;;
45392;SDS011;31129;44.810;10.334;2022-11-15T02:15:04;34.53;;;21.10;;
45392;SDS011;31129;44.810;10.334;2022-11-15T02:30:47;35.78;;;21.35;;
45392;SDS011;31129;44.810;10.334;2022-11-15T02:36:35;34.35;;;20.40;;
45392;SDS011;31129;44.810;10.334;2022-11-15T02:39:27;33.30;;;20.02;;
45392;SDS011;31129;44.810;10.334;2022-11-15T02:45:36;37.72;;;21.60;;
45392;SDS011;31129;44.810;10.334;2022-11-15T02:48:24;38.83;;;23.25;;
45392;SDS011;31129;44.810;10.334;2022-11-15T02:51:09;37.15;;;21.25;;
45392;SDS011;31129;44.810;10.334;2022-11-15T02:53:54;37.47;;;21.80;;
45392;SDS011;31129;44.810;10.334;2022-11-15T02:56:38;35.58;;;22.08;;
45392;SDS011;31129;44.810;10.334;2022-11-15T03:02:28;41.65;;;22.60;;
45392;SDS011;31129;44.810;10.334;2022-11-15T03:05:30;36.17;;;22.45;;
45392;SDS011;31129;44.810;10.334;2022-11-15T03:08:40;40.78;;;22.77;;
45392;SDS011;31129;44.810;10.334;2022-11-15T03:11:47;38.10;;;21.25;;
45392;SDS011;31129;44.810;10.334;2022-11-15T03:14:35;40.15;;;22.70;;
45392;SDS011;31129;44.810;10.334;2022-11-15T03:17:38;40.42;;;21.20;;
45392;SDS011;31129;44.810;10.334;2022-11-15T03:20:26;36.55;;;21.80;;
45392;SDS011;31129;44.810;10.334;2022-11-15T03:23:12;34.17;;;21.63;;
45392;SDS011;31129;44.810;10.334;2022-11-15T03:25:57;40.45;;;22.60;;
45392;SDS011;31129;44.810;10.334;2022-11-15T03:28:50;39.45;;;21.90;;
45392;SDS011;31129;44.810;10.334;2022-11-15T03:31:39;38.75;;;22.95;;
45392;SDS011;31129;44.810;10.334;2022-11-15T03:46:46;38.33;;;21.80;;
45392;SDS011;31129;44.810;10.334;2022-11-15T03:49:35;36.42;;;21.27;;
45392;SDS011;31129;44.810;10.334;2022-11-15T03:52:23;35.75;;;20.90;;
45392;SDS011;31129;44.810;10.334;2022-11-15T03:55:08;45.17;;;22.33;;
45392;SDS011;31129;44.810;10.334;2022-11-15T03:57:56;37.60;;;21.77;;
45392;SDS011;31129;44.810;10.334;2022-11-15T04:00:48;39.40;;;22.63;;
45392;SDS011;31129;44.810;10.334;2022-11-15T04:04:17;36.63;;;22.08;;
45392;SDS011;31129;44.810;10.334;2022-11-15T04:07:01;35.03;;;22.50;;
45392;SDS011;31129;44.810;10.334;2022-11-15T04:09:45;38.35;;;22.30;;
45392;SDS011;31129;44.810;10.334;2022-11-15T04:12:48;36.25;;;21.77;;
45392;SDS011;31129;44.810;10.334;2022-11-15T04:15:32;43.20;;;22.00;;
45392;SDS011;31129;44.810;10.334;2022-11-15T04:18:16;36.20;;;21.75;;
45392;SDS011;31129;44.810;10.334;2022-11-15T04:21:00;37.88;;;22.67;;
45392;SDS011;31129;44.810;10.334;2022-11-15T04:24:03;41.28;;;22.83;;
45392;SDS011;31129;44.810;10.334;2022-11-15T04:26:57;40.85;;;23.13;;
45392;SDS011;31129;44.810;10.334;2022-11-15T04:29:41;37.70;;;21.77;;
45392;SDS011;31129;44.810;10.334;2022-11-15T04:32:25;40.25;;;23.48;;
45392;SDS011;31129;44.810;10.334;2022-11-15T04:35:09;41.03;;;24.33;;
45392;SDS011;31129;44.810;10.334;2022-11-15T04:37:53;40.05;;;23.60;;
45392;SDS011;31129;44.810;10.334;2022-11-15T04:40:40;40.40;;;22.88;;
45392;SDS011;31129;44.810;10.334;2022-11-15T04:43:24;40.90;;;22.77;;
45392;SDS011;31129;44.810;10.334;2022-11-15T04:46:08;38.50;;;22.77;;
45392;SDS011;31129;44.810;10.334;2022-11-15T04:48:52;32.33;;;20.42;;
45392;SDS011;31129;44.810;10.334;2022-11-15T04:51:37;35.92;;;20.88;;
45392;SDS011;31129;44.810;10.334;2022-11-15T04:54:21;35.20;;;20.58;;
45392;SDS011;31129;44.810;10.334;2022-11-15T04:57:04;35.55;;;22.20;;
45392;SDS011;31129;44.810;10.334;2022-11-15T04:59:48;35.35;;;22.50;;
45392;SDS011;31129;44.810;10.334;2022-11-15T05:02:32;37.35;;;21.80;;
45392;SDS011;31129;44.810;10.334;2022-11-15T05:05:35;35.38;;;22.30;;
45392;SDS011;31129;44.810;10.334;2022-11-15T05:08:20;39.50;;;21.77;;
45392;SDS011;31129;44.810;10.334;2022-11-15T05:11:03;38.47;;;22.55;;
45392;SDS011;31129;44.810;10.334;2022-11-15T05:13:48;38.35;;;22.83;;
45392;SDS011;31129;44.810;10.334;2022-11-15T05:16:32;40.88;;;23.00;;
45392;SDS011;31129;44.810;10.334;2022-11-15T05:19:16;35.20;;;21.48;;
45392;SDS011;31129;44.810;10.334;2022-11-15T05:22:00;38.25;;;22.20;;
45392;SDS011;31129;44.810;10.334;2022-11-15T05:24:44;38.47;;;21.45;;
45392;SDS011;31129;44.810;10.334;2022-11-15T05:27:28;38.35;;;22.08;;
45392;SDS011;31129;44.810;10.334;2022-11-15T05:30:12;38.33;;;23.33;;
45392;SDS011;31129;44.810;10.334;2022-11-15T05:32:56;34.13;;;21.33;;
45392;SDS011;31129;44.810;10.334;2022-11-15T05:35:41;41.20;;;23.45;;
45392;SDS011;31129;44.810;10.334;2022-11-15T05:38:30;42.55;;;23.33;;
45392;SDS011;31129;44.810;10.334;2022-11-15T05:41:14;39.97;;;24.92;;
45392;SDS011;31129;44.810;10.334;2022-11-15T05:44:00;43.53;;;23.90;;
45392;SDS011;31129;44.810;10.334;2022-11-15T05:46:46;42.15;;;24.60;;
45392;SDS011;31129;44.810;10.334;2022-11-15T05:49:33;46.13;;;25.17;;
45392;SDS011;31129;44.810;10.334;2022-11-15T05:52:21;39.53;;;24.15;;
45392;SDS011;31129;44.810;10.334;2022-11-15T05:55:08;41.00;;;24.45;;
45392;SDS011;31129;44.810;10.334;2022-11-15T05:57:53;42.13;;;24.75;;
45392;SDS011;31129;44.810;10.334;2022-11-15T06:00:37;44.60;;;25.92;;
45392;SDS011;31129;44.810;10.334;2022-11-15T06:03:21;45.03;;;25.95;;
45392;SDS011;31129;44.810;10.334;2022-11-15T06:06:05;43.58;;;24.95;;
45392;SDS011;31129;44.810;10.334;2022-11-15T06:08:49;44.83;;;25.80;;
45392;SDS011;31129;44.810;10.334;2022-11-15T06:11:33;39.10;;;25.83;;
45392;SDS011;31129;44.810;10.334;2022-11-15T06:14:17;43.28;;;25.52;;
45392;SDS011;31129;44.810;10.334;2022-11-15T06:17:01;42.05;;;24.58;;
45392;SDS011;31129;44.810;10.334;2022-11-15T06:19:46;41.55;;;25.00;;
45392;SDS011;31129;44.810;10.334;2022-11-15T06:22:30;41.50;;;24.38;;
45392;SDS011;31129;44.810;10.334;2022-11-15T06:25:14;42.40;;;25.20;;
45392;SDS011;31129;44.810;10.334;2022-11-15T06:27:59;46.00;;;25.15;;
45392;SDS011;31129;44.810;10.334;2022-11-15T06:30:45;41.50;;;25.13;;
45392;SDS011;31129;44.810;10.334;2022-11-15T06:33:29;39.83;;;25.20;;
45392;SDS011;31129;44.810;10.334;2022-11-15T06:36:13;38.40;;;23.73;;
45392;SDS011;31129;44.810;10.334;2022-11-15T06:38:59;39.83;;;24.05;;
45392;SDS011;31129;44.810;10.334;2022-11-15T06:41:43;43.30;;;25.05;;
45392;SDS011;31129;44.810;10.334;2022-11-15T06:44:27;46.00;;;25.70;;
45392;SDS011;31129;44.810;10.334;2022-11-15T06:47:11;39.63;;;23.10;;
45392;SDS011;31129;44.810;10.334;2022-11-15T06:49:55;44.63;;;25.48;;
45392;SDS011;31129;44.810;10.334;2022-11-15T06:52:39;41.38;;;25.52;;
45392;SDS011;31129;44.810;10.334;2022-11-15T06:55:23;42.33;;;26.02;;
45392;SDS011;31129;44.810;10.334;2022-11-15T06:58:07;46.33;;;25.90;;
45392;SDS011;31129;44.810;10.334;2022-11-15T07:00:51;44.38;;;25.70;;
45392;SDS011;31129;44.810;10.334;2022-11-15T07:03:36;50.35;;;26.45;;
45392;SDS011;31129;44.810;10.334;2022-11-15T07:06:21;43.35;;;26.63;;
45392;SDS011;31129;44.810;10.334;2022-11-15T07:09:05;47.08;;;27.48;;
45392;SDS011;31129;44.810;10.334;2022-11-15T07:11:49;39.95;;;24.38;;
45392;SDS011;31129;44.810;10.334;2022-11-15T07:14:33;43.90;;;25.52;;
45392;SDS011;31129;44.810;10.334;2022-11-15T07:17:17;42.25;;;25.90;;
45392;SDS011;31129;44.810;10.334;2022-11-15T07:20:01;45.22;;;25.13;;
45392;SDS011;31129;44.810;10.334;2022-11-15T07:22:46;46.13;;;26.30;;
45392;SDS011;31129;44.810;10.334;2022-11-15T07:25:30;40.72;;;24.55;;
45392;SDS011;31129;44.810;10.334;2022-11-15T07:28:14;43.33;;;26.20;;
45392;SDS011;31129;44.810;10.334;2022-11-15T07:31:01;41.08;;;25.38;;
45392;SDS011;31129;44.810;10.334;2022-11-15T07:33:46;43.05;;;24.95;;
45392;SDS011;31129;44.810;10.334;2022-11-15T07:36:30;40.75;;;25.27;;
45392;SDS011;31129;44.810;10.334;2022-11-15T07:39:14;42.28;;;25.17;;
45392;SDS011;31129;44.810;10.334;2022-11-15T07:41:58;42.55;;;25.15;;
45392;SDS011;31129;44.810;10.334;2022-11-15T07:45:02;46.40;;;24.25;;
45392;SDS011;31129;44.810;10.334;2022-11-15T07:47:47;44.35;;;24.83;;
45392;SDS011;31129;44.810;10.334;2022-11-15T07:50:36;44.42;;;25.60;;
45392;SDS011;31129;44.810;10.334;2022-11-15T07:53:23;44.22;;;25.67;;
45392;SDS011;31129;44.810;10.334;2022-11-15T07:56:07;43.22;;;26.50;;
45392;SDS011;31129;44.810;10.334;2022-11-15T07:58:52;43.10;;;26.08;;
45392;SDS011;31129;44.810;10.334;2022-11-15T08:01:35;46.30;;;25.15;;
45392;SDS011;31129;44.810;10.334;2022-11-15T08:04:19;45.80;;;24.80;;
45392;SDS011;31129;44.810;10.334;2022-11-15T08:07:03;41.05;;;25.48;;
45392;SDS011;31129;44.810;10.334;2022-11-15T08:09:47;42.65;;;26.00;;
45392;SDS011;31129;44.810;10.334;2022-11-15T08:12:31;48.50;;;26.40;;
45392;SDS011;31129;44.810;10.334;2022-11-15T08:15:15;44.83;;;26.08;;
45392;SDS011;31129;44.810;10.334;2022-11-15T08:18:01;44.72;;;26.23;;
45392;SDS011;31129;44.810;10.334;2022-11-15T08:20:46;45.95;;;27.42;;
45392;SDS011;31129;44.810;10.334;2022-11-15T08:23:30;45.45;;;25.83;;
45392;SDS011;31129;44.810;10.334;2022-11-15T08:26:15;39.67;;;25.58;;
45392;SDS011;31129;44.810;10.334;2022-11-15T08:29:00;41.65;;;26.33;;
45392;SDS011;31129;44.810;10.334;2022-11-15T08:31:44;48.20;;;26.63;;
45392;SDS011;31129;44.810;10.334;2022-11-15T08:34:28;42.78;;;26.23;;
45392;SDS011;31129;44.810;10.334;2022-11-15T08:37:12;47.15;;;25.50;;
45392;SDS011;31129;44.810;10.334;2022-11-15T08:39:56;41.85;;;26.08;;
45392;SDS011;31129;44.810;10.334;2022-11-15T08:42:40;46.28;;;26.95;;
45392;SDS011;31129;44.810;10.334;2022-11-15T08:45:24;47.22;;;27.95;;
45392;SDS011;31129;44.810;10.334;2022-11-15T08:48:08;49.15;;;28.30;;
45392;SDS011;31129;44.810;10.334;2022-11-15T08:50:53;46.47;;;27.90;;
45392;SDS011;31129;44.810;10.334;2022-11-15T08:53:44;50.83;;;29.38;;
45392;SDS011;31129;44.810;10.334;2022-11-15T08:56:28;45.65;;;27.42;;
45392;SDS011;31129;44.810;10.334;2022-11-15T08:59:12;47.58;;;28.10;;
45392;SDS011;31129;44.810;10.334;2022-11-15T09:01:56;46.88;;;27.73;;
45392;SDS011;31129;44.810;10.334;2022-11-15T09:04:41;50.13;;;28.70;;
45392;SDS011;31129;44.810;10.334;2022-11-15T09:07:26;52.30;;;31.30;;
45392;SDS011;31129;44.810;10.334;2022-11-15T09:10:10;48.78;;;29.73;;
45392;SDS011;31129;44.810;10.334;2022-11-15T09:12:54;49.13;;;29.40;;
45392;SDS011;31129;44.810;10.334;2022-11-15T09:15:40;48.83;;;29.25;;
45392;SDS011;31129;44.810;10.334;2022-11-15T09:18:24;49.63;;;29.20;;
45392;SDS011;31129;44.810;10.334;2022-11-15T09:21:09;50.05;;;29.17;;
45392;SDS011;31129;44.810;10.334;2022-11-15T09:23:53;47.40;;;29.58;;
45392;SDS011;31129;44.810;10.334;2022-11-15T09:26:37;48.55;;;30.20;;
45392;SDS011;31129;44.810;10.334;2022-11-15T09:29:21;54.42;;;30.67;;
45392;SDS011;31129;44.810;10.334;2022-11-15T09:32:05;49.83;;;29.45;;
45392;SDS011;31129;44.810;10.334;2022-11-15T09:34:49;46.03;;;29.40;;
45392;SDS011;31129;44.810;10.334;2022-11-15T09:37:33;45.88;;;29.20;;
45392;SDS011;31129;44.810;10.334;2022-11-15T09:40:17;49.88;;;30.80;;
45392;SDS011;31129;44.810;10.334;2022-11-15T09:46:10;51.00;;;30.23;;
45392;SDS011;31129;44.810;10.334;2022-11-15T09:49:08;54.13;;;29.65;;
45392;SDS011;31129;44.810;10.334;2022-11-15T09:51:53;47.58;;;29.52;;
45392;SDS011;31129;44.810;10.334;2022-11-15T09:57:04;49.08;;;28.30;;
45392;SDS011;31129;44.810;10.334;2022-11-15T09:59:42;43.40;;;27.67;;
45392;SDS011;31129;44.810;10.334;2022-11-15T10:05:18;50.90;;;31.05;;
45392;SDS011;31129;44.810;10.334;2022-11-15T10:10:58;49.13;;;30.02;;
45392;SDS011;31129;44.810;10.334;2022-11-15T10:13:28;54.85;;;31.45;;
45392;SDS011;31129;44.810;10.334;2022-11-15T10:16:04;49.05;;;30.08;;
45392;SDS011;31129;44.810;10.334;2022-11-15T10:24:11;48.45;;;29.63;;
45392;SDS011;31129;44.810;10.334;2022-11-15T10:26:38;50.10;;;30.92;;
45392;SDS011;31129;44.810;10.334;2022-11-15T10:29:04;50.67;;;30.23;;
45392;SDS011;31129;44.810;10.334;2022-11-15T10:31:29;51.03;;;30.13;;
45392;SDS011;31129;44.810;10.334;2022-11-15T10:34:12;50.03;;;30.08;;
45392;SDS011;31129;44.810;10.334;2022-11-15T10:36:43;46.85;;;30.63;;
45392;SDS011;31129;44.810;10.334;2022-11-15T10:39:27;51.85;;;31.02;;
45392;SDS011;31129;44.810;10.334;2022-11-15T10:41:53;49.20;;;30.83;;
45392;SDS011;31129;44.810;10.334;2022-11-15T10:44:20;55.10;;;31.25;;
45392;SDS011;31129;44.810;10.334;2022-11-15T10:51:54;50.00;;;31.10;;
45392;SDS011;31129;44.810;10.334;2022-11-15T10:54:29;52.00;;;32.33;;
45392;SDS011;31129;44.810;10.334;2022-11-15T10:56:59;56.00;;;32.13;;
45392;SDS011;31129;44.810;10.334;2022-11-15T10:59:37;54.92;;;32.63;;
45392;SDS011;31129;44.810;10.334;2022-11-15T11:02:21;56.03;;;33.55;;
45392;SDS011;31129;44.810;10.334;2022-11-15T11:04:49;53.88;;;34.05;;
45392;SDS011;31129;44.810;10.334;2022-11-15T11:07:54;54.83;;;31.48;;
45392;SDS011;31129;44.810;10.334;2022-11-15T11:10:20;51.90;;;32.05;;
45392;SDS011;31129;44.810;10.334;2022-11-15T11:12:46;56.80;;;34.42;;
45392;SDS011;31129;44.810;10.334;2022-11-15T11:15:13;54.92;;;34.30;;
45392;SDS011;31129;44.810;10.334;2022-11-15T11:20:45;53.17;;;33.08;;
45392;SDS011;31129;44.810;10.334;2022-11-15T11:24:01;56.58;;;33.97;;
45392;SDS011;31129;44.810;10.334;2022-11-15T11:29:02;58.13;;;34.58;;
45392;SDS011;31129;44.810;10.334;2022-11-15T11:32:05;61.42;;;34.92;;
45392;SDS011;31129;44.810;10.334;2022-11-15T11:37:39;60.20;;;35.85;;
45392;SDS011;31129;44.810;10.334;2022-11-15T11:42:48;62.28;;;35.42;;
45392;SDS011;31129;44.810;10.334;2022-11-15T11:48:10;60.70;;;35.55;;
45392;SDS011;31129;44.810;10.334;2022-11-15T11:50:39;69.80;;;37.20;;
45392;SDS011;31129;44.810;10.334;2022-11-15T11:56:22;64.07;;;36.33;;
45392;SDS011;31129;44.810;10.334;2022-11-15T11:58:48;69.30;;;38.17;;
45392;SDS011;31129;44.810;10.334;2022-11-15T12:01:24;68.32;;;38.95;;
45392;SDS011;31129;44.810;10.334;2022-11-15T12:07:36;71.05;;;39.58;;
45392;SDS011;31129;44.810;10.334;2022-11-15T12:13:02;67.93;;;38.42;;
45392;SDS011;31129;44.810;10.334;2022-11-15T12:15:32;63.85;;;37.55;;
45392;SDS011;31129;44.810;10.334;2022-11-15T12:18:04;64.28;;;37.60;;
45392;SDS011;31129;44.810;10.334;2022-11-15T12:20:34;68.40;;;39.55;;
45392;SDS011;31129;44.810;10.334;2022-11-15T12:23:10;64.38;;;37.45;;
45392;SDS011;31129;44.810;10.334;2022-11-15T12:28:42;67.07;;;38.67;;
45392;SDS011;31129;44.810;10.334;2022-11-15T12:31:12;66.75;;;39.03;;
45392;SDS011;31129;44.810;10.334;2022-11-15T12:33:44;66.03;;;37.55;;
45392;SDS011;31129;44.810;10.334;2022-11-15T12:38:54;67.10;;;38.80;;
45392;SDS011;31129;44.810;10.334;2022-11-15T12:41:25;64.88;;;37.63;;
45392;SDS011;31129;44.810;10.334;2022-11-15T12:43:52;60.60;;;36.28;;
45392;SDS011;31129;44.810;10.334;2022-11-15T12:51:19;69.43;;;36.45;;
45392;SDS011;31129;44.810;10.334;2022-11-15T12:53:45;63.13;;;38.22;;
45392;SDS011;31129;44.810;10.334;2022-11-15T12:58:43;62.03;;;36.67;;
45392;SDS011;31129;44.810;10.334;2022-11-15T13:04:13;64.85;;;37.00;;
45392;SDS011;31129;44.810;10.334;2022-11-15T13:06:46;61.35;;;37.65;;
45392;SDS011;31129;44.810;10.334;2022-11-15T13:17:24;58.22;;;34.63;;
45392;SDS011;31129;44.810;10.334;2022-11-15T13:19:53;59.22;;;33.83;;
45392;SDS011;31129;44.810;10.334;2022-11-15T13:22:24;60.00;;;34.15;;
45392;SDS011;31129;44.810;10.334;2022-11-15T13:25:14;61.95;;;35.83;;
45392;SDS011;31129;44.810;10.334;2022-11-15T13:27:49;60.15;;;35.72;;
45392;SDS011;31129;44.810;10.334;2022-11-15T13:30:19;59.17;;;34.88;;
45392;SDS011;31129;44.810;10.334;2022-11-15T13:32:49;60.63;;;34.15;;
45392;SDS011;31129;44.810;10.334;2022-11-15T13:35:36;57.50;;;33.95;;
45392;SDS011;31129;44.810;10.334;2022-11-15T13:38:04;58.65;;;33.53;;
45392;SDS011;31129;44.810;10.334;2022-11-15T13:40:37;50.72;;;31.17;;
45392;SDS011;31129;44.810;10.334;2022-11-15T13:48:51;48.95;;;29.75;;
45392;SDS011;31129;44.810;10.334;2022-11-15T13:56:37;52.58;;;31.50;;
45392;SDS011;31129;44.810;10.334;2022-11-15T13:59:10;51.17;;;31.15;;
45392;SDS011;31129;44.810;10.334;2022-11-15T14:01:42;45.60;;;27.70;;
45392;SDS011;31129;44.810;10.334;2022-11-15T14:04:12;52.38;;;31.98;;
45392;SDS011;31129;44.810;10.334;2022-11-15T14:06:47;45.50;;;28.58;;
45392;SDS011;31129;44.810;10.334;2022-11-15T14:09:29;47.45;;;29.15;;
45392;SDS011;31129;44.810;10.334;2022-11-15T14:11:58;49.00;;;30.42;;
45392;SDS011;31129;44.810;10.334;2022-11-15T14:14:24;48.45;;;29.20;;
45392;SDS011;31129;44.810;10.334;2022-11-15T14:16:55;55.70;;;30.85;;
45392;SDS011;31129;44.810;10.334;2022-11-15T14:24:39;47.13;;;29.35;;
45392;SDS011;31129;44.810;10.334;2022-11-15T14:27:21;51.72;;;30.58;;
45392;SDS011;31129;44.810;10.334;2022-11-15T14:29:51;51.05;;;31.13;;
45392;SDS011;31129;44.810;10.334;2022-11-15T14:34:47;46.80;;;29.20;;
45392;SDS011;31129;44.810;10.334;2022-11-15T14:37:27;49.55;;;29.58;;
45392;SDS011;31129;44.810;10.334;2022-11-15T14:39:56;45.40;;;27.50;;
45392;SDS011;31129;44.810;10.334;2022-11-15T14:42:22;46.17;;;29.25;;
45392;SDS011;31129;44.810;10.334;2022-11-15T14:44:48;47.15;;;28.88;;
45392;SDS011;31129;44.810;10.334;2022-11-15T14:47:14;54.53;;;32.40;;
45392;SDS011;31129;44.810;10.334;2022-11-15T14:49:40;50.60;;;31.92;;
45392;SDS011;31129;44.810;10.334;2022-11-15T14:52:25;55.83;;;31.50;;
45392;SDS011;31129;44.810;10.334;2022-11-15T14:54:53;58.63;;;33.22;;
45392;SDS011;31129;44.810;10.334;2022-11-15T14:57:20;54.08;;;31.65;;
45392;SDS011;31129;44.810;10.334;2022-11-15T14:59:45;55.00;;;32.35;;
45392;SDS011;31129;44.810;10.334;2022-11-15T15:02:15;56.45;;;31.67;;
45392;SDS011;31129;44.810;10.334;2022-11-15T15:04:41;53.85;;;32.55;;
45392;SDS011;31129;44.810;10.334;2022-11-15T15:07:06;53.97;;;30.98;;
45392;SDS011;31129;44.810;10.334;2022-11-15T15:09:32;55.45;;;32.45;;
45392;SDS011;31129;44.810;10.334;2022-11-15T15:11:58;55.00;;;32.85;;
45392;SDS011;31129;44.810;10.334;2022-11-15T15:14:23;55.08;;;32.03;;
45392;SDS011;31129;44.810;10.334;2022-11-15T15:16:48;51.58;;;29.48;;
45392;SDS011;31129;44.810;10.334;2022-11-15T15:19:14;57.20;;;33.72;;
45392;SDS011;31129;44.810;10.334;2022-11-15T15:21:39;53.95;;;31.45;;
45392;SDS011;31129;44.810;10.334;2022-11-15T15:24:05;56.08;;;32.28;;
45392;SDS011;31129;44.810;10.334;2022-11-15T15:26:30;54.53;;;31.70;;
45392;SDS011;31129;44.810;10.334;2022-11-15T15:29:00;51.35;;;30.55;;
45392;SDS011;31129;44.810;10.334;2022-11-15T15:31:25;54.58;;;33.63;;
45392;SDS011;31129;44.810;10.334;2022-11-15T15:33:50;54.78;;;32.45;;
45392;SDS011;31129;44.810;10.334;2022-11-15T15:36:17;53.20;;;31.13;;
45392;SDS011;31129;44.810;10.334;2022-11-15T15:38:44;53.87;;;33.07;;
45392;SDS011;31129;44.810;10.334;2022-11-15T15:41:11;57.97;;;32.58;;
45392;SDS011;31129;44.810;10.334;2022-11-15T15:43:38;54.97;;;31.63;;
45392;SDS011;31129;44.810;10.334;2022-11-15T15:46:04;54.00;;;30.85;;
45392;SDS011;31129;44.810;10.334;2022-11-15T15:48:33;58.90;;;32.08;;
45392;SDS011;31129;44.810;10.334;2022-11-15T15:51:02;53.42;;;31.63;;
45392;SDS011;31129;44.810;10.334;2022-11-15T15:53:27;54.47;;;31.67;;
45392;SDS011;31129;44.810;10.334;2022-11-15T15:55:54;54.28;;;31.88;;
45392;SDS011;31129;44.810;10.334;2022-11-15T15:58:19;53.35;;;30.92;;
45392;SDS011;31129;44.810;10.334;2022-11-15T16:00:45;54.28;;;32.25;;
45392;SDS011;31129;44.810;10.334;2022-11-15T16:03:11;62.63;;;32.20;;
45392;SDS011;31129;44.810;10.334;2022-11-15T16:05:37;56.60;;;33.08;;
45392;SDS011;31129;44.810;10.334;2022-11-15T16:08:02;58.03;;;32.90;;
45392;SDS011;31129;44.810;10.334;2022-11-15T16:10:29;58.00;;;32.53;;
45392;SDS011;31129;44.810;10.334;2022-11-15T16:12:59;51.25;;;31.92;;
45392;SDS011;31129;44.810;10.334;2022-11-15T16:15:29;53.22;;;31.65;;
45392;SDS011;31129;44.810;10.334;2022-11-15T16:17:57;54.65;;;32.28;;
45392;SDS011;31129;44.810;10.334;2022-11-15T16:23:05;55.47;;;32.63;;
45392;SDS011;31129;44.810;10.334;2022-11-15T16:25:45;54.90;;;32.75;;
45392;SDS011;31129;44.810;10.334;2022-11-15T16:30:46;116.03;;;68.03;;
45392;SDS011;31129;44.810;10.334;2022-11-15T16:33:11;116.78;;;67.68;;
45392;SDS011;31129;44.810;10.334;2022-11-15T16:35:37;58.33;;;34.55;;
45392;SDS011;31129;44.810;10.334;2022-11-15T16:38:02;58.33;;;33.35;;
45392;SDS011;31129;44.810;10.334;2022-11-15T16:40:29;54.95;;;33.33;;
45392;SDS011;31129;44.810;10.334;2022-11-15T16:42:57;49.40;;;30.40;;
45392;SDS011;31129;44.810;10.334;2022-11-15T16:45:24;56.22;;;31.25;;
45392;SDS011;31129;44.810;10.334;2022-11-15T16:47:50;53.42;;;30.98;;
45392;SDS011;31129;44.810;10.334;2022-11-15T16:50:22;55.17;;;33.28;;
45392;SDS011;31129;44.810;10.334;2022-11-15T16:52:58;54.00;;;31.38;;
45392;SDS011;31129;44.810;10.334;2022-11-15T16:55:27;53.40;;;30.98;;
45392;SDS011;31129;44.810;10.334;2022-11-15T16:57:54;49.80;;;30.58;;
45392;SDS011;31129;44.810;10.334;2022-11-15T17:00:22;51.95;;;30.90;;
45392;SDS011;31129;44.810;10.334;2022-11-15T17:02:48;54.90;;;30.70;;
45392;SDS011;31129;44.810;10.334;2022-11-15T17:05:15;54.20;;;32.15;;
45392;SDS011;31129;44.810;10.334;2022-11-15T17:07:42;55.50;;;32.55;;
45392;SDS011;31129;44.810;10.334;2022-11-15T17:10:08;55.15;;;33.15;;
45392;SDS011;31129;44.810;10.334;2022-11-15T17:15:02;46.90;;;28.92;;
45392;SDS011;31129;44.810;10.334;2022-11-15T17:17:29;53.72;;;32.00;;
45392;SDS011;31129;44.810;10.334;2022-11-15T17:19:54;48.25;;;29.02;;
45392;SDS011;31129;44.810;10.334;2022-11-15T17:22:20;47.63;;;29.38;;
45392;SDS011;31129;44.810;10.334;2022-11-15T17:24:45;48.15;;;29.02;;
45392;SDS011;31129;44.810;10.334;2022-11-15T17:27:11;49.97;;;30.23;;
45392;SDS011;31129;44.810;10.334;2022-11-15T17:29:36;49.65;;;29.77;;
45392;SDS011;31129;44.810;10.334;2022-11-15T17:32:02;49.75;;;29.52;;